Time;durP1;ratioP1;P1;durP2;ratioP2;P2;SDS_P1;SDS_P2;PMS_P1;PMS_P2;Temp;Humidity;BMP_temperature;BMP_pressure;BME280_temperature;BME280_humidity;BME280_pressure;Samples;Min_cycle;Max_cycle;Signal;HPM_P1;HPM_P2
2021/09/27 00:00:37;;;;;;;4.11;3.05;;;;;;;20.00;70.66;100602.19;;;;-61
2021/09/27 00:03:37;;;;;;;3.89;3.18;;;;;;;19.99;70.68;100597.41;;;;-49
2021/09/27 00:06:37;;;;;;;4.01;3.14;;;;;;;20.00;70.71;100597.64;;;;-61
2021/09/27 00:09:37;;;;;;;3.41;2.97;;;;;;;19.99;70.71;100598.45;;;;-51
2021/09/27 00:12:37;;;;;;;4.14;3.32;;;;;;;19.99;70.69;100603.99;;;;-51
2021/09/27 00:15:37;;;;;;;3.61;3.30;;;;;;;19.98;70.71;100602.27;;;;-51
2021/09/27 00:18:37;;;;;;;3.55;3.11;;;;;;;19.98;70.72;100606.00;;;;-51
2021/09/27 00:21:37;;;;;;;3.68;3.15;;;;;;;19.98;70.72;100609.09;;;;-50
2021/09/27 00:24:37;;;;;;;3.79;3.10;;;;;;;19.97;70.72;100608.12;;;;-53
2021/09/27 00:27:37;;;;;;;3.72;3.23;;;;;;;19.98;70.72;100606.25;;;;-55
2021/09/27 00:30:37;;;;;;;3.64;3.24;;;;;;;19.97;70.72;100602.76;;;;-51
2021/09/27 00:33:37;;;;;;;3.40;3.09;;;;;;;19.97;70.72;100601.62;;;;-51
2021/09/27 00:36:37;;;;;;;3.84;3.22;;;;;;;19.96;70.74;100598.37;;;;-51
2021/09/27 00:39:38;;;;;;;3.85;3.12;;;;;;;19.96;70.70;100600.53;;;;-51
2021/09/27 00:42:37;;;;;;;3.50;3.19;;;;;;;19.95;70.72;100599.41;;;;-53
2021/09/27 00:45:37;;;;;;;3.57;3.19;;;;;;;19.95;70.71;100602.58;;;;-54
2021/09/27 00:48:37;;;;;;;3.99;3.19;;;;;;;19.94;70.72;100600.14;;;;-55
2021/09/27 00:51:37;;;;;;;3.55;3.21;;;;;;;19.94;70.75;100598.90;;;;-61
2021/09/27 00:54:37;;;;;;;4.03;3.21;;;;;;;19.94;70.74;100598.66;;;;-61
2021/09/27 00:57:37;;;;;;;4.27;3.24;;;;;;;19.95;70.68;100592.42;;;;-49
2021/09/27 01:00:37;;;;;;;3.53;3.20;;;;;;;19.94;70.76;100593.69;;;;-54
2021/09/27 01:03:37;;;;;;;3.84;3.07;;;;;;;19.94;70.69;100595.64;;;;-61
2021/09/27 01:06:37;;;;;;;3.29;2.97;;;;;;;19.94;70.74;100597.77;;;;-51
2021/09/27 01:09:38;;;;;;;4.24;3.51;;;;;;;19.94;70.74;100593.20;;;;-51
2021/09/27 01:12:38;;;;;;;3.44;3.13;;;;;;;19.93;70.71;100585.73;;;;-51
2021/09/27 01:15:37;;;;;;;3.76;3.07;;;;;;;19.93;70.73;100584.67;;;;-50
2021/09/27 01:18:38;;;;;;;3.30;3.00;;;;;;;19.93;70.73;100587.03;;;;-51
2021/09/27 01:21:39;;;;;;;3.89;3.12;;;;;;;19.92;70.75;100580.28;;;;-49
2021/09/27 01:24:37;;;;;;;3.48;3.18;;;;;;;19.92;70.71;100579.47;;;;-62
2021/09/27 01:27:37;;;;;;;3.10;2.80;;;;;;;19.92;70.74;100574.59;;;;-61
2021/09/27 01:32:37;;;;;;;3.27;2.90;;;;;;;19.92;70.71;100574.73;;;;-50
2021/09/27 01:35:37;;;;;;;3.43;3.07;;;;;;;19.91;70.76;100574.00;;;;-54
2021/09/27 01:38:37;;;;;;;3.83;3.13;;;;;;;19.91;70.78;100573.67;;;;-49
2021/09/27 01:41:37;;;;;;;3.41;3.11;;;;;;;19.91;70.73;100575.47;;;;-49
2021/09/27 01:44:37;;;;;;;4.21;3.19;;;;;;;19.90;70.74;100574.83;;;;-51
2021/09/27 01:47:37;;;;;;;3.34;3.04;;;;;;;19.90;70.77;100569.70;;;;-50
2021/09/27 01:50:37;;;;;;;3.77;3.25;;;;;;;19.90;70.75;100567.50;;;;-49
2021/09/27 01:53:37;;;;;;;3.45;3.15;;;;;;;19.90;70.73;100564.66;;;;-55
2021/09/27 01:56:37;;;;;;;3.21;2.91;;;;;;;19.90;70.75;100557.42;;;;-50
2021/09/27 01:59:37;;;;;;;3.40;3.10;;;;;;;19.91;70.75;100559.69;;;;-50
2021/09/27 02:02:37;;;;;;;3.21;2.91;;;;;;;19.89;70.78;100558.53;;;;-51
2021/09/27 02:05:38;;;;;;;3.08;2.81;;;;;;;19.89;70.74;100563.17;;;;-61
2021/09/27 02:08:37;;;;;;;3.33;3.03;;;;;;;19.90;70.77;100564.47;;;;-61
2021/09/27 02:11:37;;;;;;;3.41;3.01;;;;;;;19.89;70.74;100566.27;;;;-61
2021/09/27 02:14:37;;;;;;;3.65;3.35;;;;;;;19.89;70.74;100572.93;;;;-61
2021/09/27 02:17:37;;;;;;;4.45;3.15;;;;;;;19.89;70.79;100577.41;;;;-61
2021/09/27 02:20:37;;;;;;;3.43;3.13;;;;;;;19.88;70.74;100579.20;;;;-55
2021/09/27 02:23:37;;;;;;;3.47;3.17;;;;;;;19.89;70.73;100582.53;;;;-51
2021/09/27 02:26:37;;;;;;;3.39;3.09;;;;;;;19.88;70.75;100582.13;;;;-55
2021/09/27 02:29:37;;;;;;;3.31;3.01;;;;;;;19.88;70.76;100582.45;;;;-50
2021/09/27 02:32:37;;;;;;;3.47;3.03;;;;;;;19.89;70.73;100583.18;;;;-51
2021/09/27 02:35:37;;;;;;;3.12;2.85;;;;;;;19.88;70.72;100581.72;;;;-51
2021/09/27 02:38:37;;;;;;;3.32;3.02;;;;;;;19.88;70.74;100580.18;;;;-51
2021/09/27 02:41:38;;;;;;;3.40;3.10;;;;;;;19.88;70.76;100582.02;;;;-51
2021/09/27 02:44:37;;;;;;;3.48;3.18;;;;;;;19.87;70.76;100582.76;;;;-49
2021/09/27 02:47:38;;;;;;;3.37;3.07;;;;;;;19.87;70.73;100581.95;;;;-54
2021/09/27 02:50:37;;;;;;;3.57;3.25;;;;;;;19.87;70.73;100585.12;;;;-51
2021/09/27 02:53:37;;;;;;;3.26;2.96;;;;;;;19.87;70.76;100590.16;;;;-61
2021/09/27 02:56:37;;;;;;;3.39;3.09;;;;;;;19.87;70.75;100595.61;;;;-55
2021/09/27 02:59:38;;;;;;;3.36;3.06;;;;;;;19.87;70.77;100589.02;;;;-61
2021/09/27 03:02:37;;;;;;;3.55;3.25;;;;;;;19.86;70.75;100585.86;;;;-51
2021/09/27 03:05:37;;;;;;;3.46;3.16;;;;;;;19.86;70.76;100587.23;;;;-51
2021/09/27 03:08:37;;;;;;;3.32;3.02;;;;;;;19.86;70.76;100581.30;;;;-50
2021/09/27 03:11:37;;;;;;;3.18;2.87;;;;;;;19.86;70.75;100579.73;;;;-49
2021/09/27 03:14:38;;;;;;;3.30;3.00;;;;;;;19.86;70.76;100576.59;;;;-50
2021/09/27 03:17:37;;;;;;;3.87;3.02;;;;;;;19.86;70.74;100578.10;;;;-61
2021/09/27 03:20:37;;;;;;;3.51;3.13;;;;;;;19.85;70.78;100576.97;;;;-61
2021/09/27 03:23:37;;;;;;;3.44;3.13;;;;;;;19.85;70.72;100572.91;;;;-49
2021/09/27 03:26:37;;;;;;;3.50;3.20;;;;;;;19.85;70.75;100570.87;;;;-49
2021/09/27 03:29:37;;;;;;;3.35;3.05;;;;;;;19.85;70.76;100573.56;;;;-50
2021/09/27 03:32:37;;;;;;;3.29;2.99;;;;;;;19.85;70.77;100572.17;;;;-61
2021/09/27 03:35:37;;;;;;;3.23;2.93;;;;;;;19.84;70.77;100574.94;;;;-52
2021/09/27 03:38:37;;;;;;;3.27;2.97;;;;;;;19.84;70.76;100568.77;;;;-55
2021/09/27 03:41:37;;;;;;;3.24;2.94;;;;;;;19.84;70.80;100570.55;;;;-51
2021/09/27 03:44:37;;;;;;;3.98;3.11;;;;;;;19.84;70.72;100564.53;;;;-50
2021/09/27 03:47:37;;;;;;;3.71;2.79;;;;;;;19.84;70.78;100572.34;;;;-61
2021/09/27 03:50:38;;;;;;;3.40;3.10;;;;;;;19.83;70.78;100573.30;;;;-61
2021/09/27 03:53:37;;;;;;;3.36;3.06;;;;;;;19.83;70.78;100571.91;;;;-61
2021/09/27 03:56:37;;;;;;;3.37;3.07;;;;;;;19.84;70.78;100570.55;;;;-61
2021/09/27 03:59:37;;;;;;;3.40;3.10;;;;;;;19.83;70.78;100566.95;;;;-51
2021/09/27 04:02:37;;;;;;;3.35;3.05;;;;;;;19.83;70.79;100568.50;;;;-51
2021/09/27 04:05:37;;;;;;;3.10;2.90;;;;;;;19.83;70.77;100567.03;;;;-51
2021/09/27 04:08:37;;;;;;;2.94;2.74;;;;;;;19.82;70.80;100569.48;;;;-61
2021/09/27 04:11:37;;;;;;;3.29;2.99;;;;;;;19.82;70.78;100566.55;;;;-51
2021/09/27 04:14:37;;;;;;;3.19;2.90;;;;;;;19.82;70.79;100567.69;;;;-49
2021/09/27 04:17:37;;;;;;;3.51;3.21;;;;;;;19.82;70.76;100568.42;;;;-51
2021/09/27 04:20:37;;;;;;;3.31;3.01;;;;;;;19.82;70.79;100562.41;;;;-61
2021/09/27 04:23:37;;;;;;;3.16;2.86;;;;;;;19.82;70.78;100560.51;;;;-61
2021/09/27 04:26:37;;;;;;;3.49;3.19;;;;;;;19.82;70.83;100559.86;;;;-55
2021/09/27 04:29:37;;;;;;;3.13;2.89;;;;;;;19.82;70.79;100563.11;;;;-49
2021/09/27 04:32:37;;;;;;;3.51;3.21;;;;;;;19.81;70.82;100565.23;;;;-55
2021/09/27 04:36:37;;;;;;;3.25;2.95;;;;;;;19.81;70.80;100568.24;;;;-55
2021/09/27 04:39:39;;;;;;;3.61;3.08;;;;;;;19.81;70.78;100568.89;;;;-61
2021/09/27 04:42:39;;;;;;;3.40;3.10;;;;;;;19.81;70.76;100568.65;;;;-50
2021/09/27 04:45:37;;;;;;;3.31;3.01;;;;;;;19.80;70.75;100567.19;;;;-51
2021/09/27 04:48:37;;;;;;;3.82;3.00;;;;;;;19.81;70.80;100568.48;;;;-61
2021/09/27 04:51:38;;;;;;;3.59;3.29;;;;;;;19.81;70.81;100573.13;;;;-55
2021/09/27 04:54:37;;;;;;;3.43;3.13;;;;;;;19.80;70.76;100577.20;;;;-55
2021/09/27 04:57:37;;;;;;;3.40;3.10;;;;;;;19.80;70.81;100579.63;;;;-54
2021/09/27 05:00:37;;;;;;;3.41;3.07;;;;;;;19.80;70.80;100576.70;;;;-51
2021/09/27 05:03:38;;;;;;;3.39;3.07;;;;;;;19.80;70.81;100576.37;;;;-50
2021/09/27 05:06:37;;;;;;;3.13;2.91;;;;;;;19.79;70.79;100575.78;;;;-49
2021/09/27 05:10:37;;;;;;;3.20;2.90;;;;;;;19.80;70.76;100575.48;;;;-53
2021/09/27 05:13:37;;;;;;;3.53;3.23;;;;;;;19.79;70.82;100575.14;;;;-53
2021/09/27 05:16:37;;;;;;;3.18;2.88;;;;;;;19.79;70.81;100574.16;;;;-54
2021/09/27 05:19:37;;;;;;;3.37;3.07;;;;;;;19.79;70.83;100573.75;;;;-51
2021/09/27 05:22:37;;;;;;;3.33;3.06;;;;;;;19.79;70.79;100573.19;;;;-51
2021/09/27 05:25:38;;;;;;;3.23;2.93;;;;;;;19.79;70.79;100575.46;;;;-60
2021/09/27 05:28:37;;;;;;;3.45;3.15;;;;;;;19.78;70.75;100573.35;;;;-61
2021/09/27 05:31:37;;;;;;;3.36;3.06;;;;;;;19.78;70.82;100572.70;;;;-49
2021/09/27 05:34:38;;;;;;;3.21;2.93;;;;;;;19.79;70.79;100576.60;;;;-54
2021/09/27 05:37:37;;;;;;;3.50;3.20;;;;;;;19.79;70.83;100588.55;;;;-49
2021/09/27 05:40:37;;;;;;;3.35;3.05;;;;;;;19.78;70.78;100589.05;;;;-51
2021/09/27 05:43:37;;;;;;;3.13;2.83;;;;;;;19.78;70.79;100594.26;;;;-49
2021/09/27 05:47:37;;;;;;;3.41;3.11;;;;;;;19.78;70.81;100600.60;;;;-61
2021/09/27 05:50:37;;;;;;;3.12;2.85;;;;;;;19.78;70.78;100600.84;;;;-59
2021/09/27 05:53:39;;;;;;;3.29;2.99;;;;;;;19.77;70.80;100598.22;;;;-49
2021/09/27 05:56:37;;;;;;;3.26;2.96;;;;;;;19.78;70.79;100599.78;;;;-54
2021/09/27 05:59:37;;;;;;;3.06;2.86;;;;;;;19.77;70.78;100597.89;;;;-61
2021/09/27 06:02:37;;;;;;;3.25;2.95;;;;;;;19.77;70.79;100596.34;;;;-55
2021/09/27 06:05:37;;;;;;;3.33;3.03;;;;;;;19.77;70.78;100596.02;;;;-49
2021/09/27 06:08:37;;;;;;;3.31;3.01;;;;;;;19.76;70.80;100597.89;;;;-49
2021/09/27 06:11:37;;;;;;;3.06;2.79;;;;;;;19.77;70.83;100596.91;;;;-51
2021/09/27 06:14:38;;;;;;;3.41;3.11;;;;;;;19.77;70.80;100596.50;;;;-61
2021/09/27 06:17:37;;;;;;;3.50;3.20;;;;;;;19.77;70.82;100592.69;;;;-51
2021/09/27 06:20:37;;;;;;;3.33;3.03;;;;;;;19.76;70.78;100593.18;;;;-62
2021/09/27 06:23:37;;;;;;;3.18;2.88;;;;;;;19.76;70.77;100587.41;;;;-51
2021/09/27 06:26:37;;;;;;;3.33;3.03;;;;;;;19.76;70.79;100582.28;;;;-51
2021/09/27 06:29:37;;;;;;;3.31;3.01;;;;;;;19.76;70.80;100586.03;;;;-53
2021/09/27 06:32:38;;;;;;;3.41;3.11;;;;;;;19.76;70.79;100583.09;;;;-49
2021/09/27 06:35:37;;;;;;;3.23;2.97;;;;;;;19.76;70.78;100575.61;;;;-49
2021/09/27 06:38:37;;;;;;;3.21;2.91;;;;;;;19.76;70.80;100576.19;;;;-50
2021/09/27 06:41:37;;;;;;;3.12;2.85;;;;;;;19.76;70.78;100577.25;;;;-61
2021/09/27 06:44:38;;;;;;;3.37;3.07;;;;;;;19.76;70.79;100579.11;;;;-49
2021/09/27 06:47:37;;;;;;;3.13;2.83;;;;;;;19.76;70.77;100575.38;;;;-51
2021/09/27 06:50:37;;;;;;;3.39;3.09;;;;;;;19.75;70.79;100569.58;;;;-51
2021/09/27 06:53:37;;;;;;;4.17;3.37;;;;;;;19.76;70.75;100567.25;;;;-54
2021/09/27 06:56:37;;;;;;;3.55;3.06;;;;;;;19.75;70.80;100564.22;;;;-61
2021/09/27 06:59:37;;;;;;;3.27;2.97;;;;;;;19.75;70.78;100566.16;;;;-49
2021/09/27 07:02:37;;;;;;;3.25;2.95;;;;;;;19.75;70.79;100563.16;;;;-49
2021/09/27 07:05:37;;;;;;;3.21;2.97;;;;;;;19.75;70.77;100564.86;;;;-49
2021/09/27 07:08:37;;;;;;;3.29;3.02;;;;;;;19.75;70.78;100565.11;;;;-49
2021/09/27 07:11:37;;;;;;;3.13;2.88;;;;;;;19.75;70.81;100568.36;;;;-50
2021/09/27 07:14:37;;;;;;;3.41;3.11;;;;;;;19.75;70.80;100568.77;;;;-49
2021/09/27 07:17:38;;;;;;;3.40;3.10;;;;;;;19.74;70.80;100574.79;;;;-51
2021/09/27 07:20:37;;;;;;;3.18;2.88;;;;;;;19.74;70.79;100575.52;;;;-62
2021/09/27 07:23:38;;;;;;;3.15;2.87;;;;;;;19.74;70.83;100582.27;;;;-62
2021/09/27 07:26:37;;;;;;;3.09;2.87;;;;;;;19.75;70.82;100579.09;;;;-49
2021/09/27 07:34:52;;;;;;;5.35;3.57;;;;;;;19.74;70.98;100580.89;;;;-51
2021/09/27 07:37:53;;;;;;;3.93;3.51;;;;;;;19.75;70.93;100578.60;;;;-52
2021/09/27 07:40:52;;;;;;;3.81;3.41;;;;;;;19.75;70.87;100580.48;;;;-51
2021/09/27 07:43:52;;;;;;;3.59;3.12;;;;;;;19.75;70.88;100581.20;;;;-62
2021/09/27 07:46:52;;;;;;;3.41;3.11;;;;;;;19.74;70.89;100580.89;;;;-54
2021/09/27 07:49:52;;;;;;;4.07;3.35;;;;;;;19.75;70.87;100579.91;;;;-55
2021/09/27 07:52:52;;;;;;;7.29;3.41;;;;;;;19.76;71.10;100582.53;;;;-51
2021/09/27 07:55:52;;;;;;;6.92;3.33;;;;;;;19.77;71.03;100581.55;;;;-51
2021/09/27 07:58:52;;;;;;;3.86;3.36;;;;;;;19.78;71.10;100588.73;;;;-51
2021/09/27 08:01:52;;;;;;;5.64;3.31;;;;;;;19.79;71.16;100586.44;;;;-57
2021/09/27 08:04:52;;;;;;;4.11;3.23;;;;;;;19.81;71.27;100594.75;;;;-52
2021/09/27 08:07:52;;;;;;;3.97;3.29;;;;;;;19.83;71.31;100593.55;;;;-62
2021/09/27 08:10:52;;;;;;;6.21;3.58;;;;;;;19.84;71.39;100591.86;;;;-62
2021/09/27 08:13:52;;;;;;;4.61;3.49;;;;;;;19.86;71.53;100591.60;;;;-63
2021/09/27 08:16:52;;;;;;;5.07;3.37;;;;;;;19.86;71.41;100590.41;;;;-58
2021/09/27 08:20:04;;;;;;;3.75;3.32;;;;;;;19.87;71.49;100583.73;;;;-54
2021/09/27 08:22:52;;;;;;;3.86;3.32;;;;;;;19.89;71.58;100585.70;;;;-54
2021/09/27 08:25:52;;;;;;;5.94;3.25;;;;;;;19.89;71.56;100587.65;;;;-51
2021/09/27 08:28:52;;;;;;;12.34;3.58;;;;;;;19.91;71.71;100585.72;;;;-58
2021/09/27 08:31:52;;;;;;;4.59;3.30;;;;;;;19.92;71.67;100590.02;;;;-52
2021/09/27 08:34:53;;;;;;;12.79;3.40;;;;;;;19.93;71.55;100590.85;;;;-56
2021/09/27 08:37:53;;;;;;;6.67;3.40;;;;;;;19.94;71.57;100595.73;;;;-54
2021/09/27 08:40:52;;;;;;;4.13;3.26;;;;;;;19.95;71.50;100594.85;;;;-52
2021/09/27 08:43:52;;;;;;;6.08;3.41;;;;;;;19.95;71.64;100597.20;;;;-50
2021/09/27 08:46:52;;;;;;;3.68;3.23;;;;;;;19.97;71.52;100600.64;;;;-54
2021/09/27 08:49:53;;;;;;;5.28;3.41;;;;;;;19.96;71.57;100601.78;;;;-59
2021/09/27 08:52:52;;;;;;;8.07;3.47;;;;;;;19.96;71.49;100599.19;;;;-60
2021/09/27 08:55:52;;;;;;;6.04;3.50;;;;;;;19.96;71.50;100600.53;;;;-58
2021/09/27 08:58:52;;;;;;;6.67;3.64;;;;;;;19.96;71.52;100598.18;;;;-57
2021/09/27 09:01:52;;;;;;;3.75;3.27;;;;;;;19.94;71.37;100585.83;;;;-59
2021/09/27 09:04:52;;;;;;;4.24;3.43;;;;;;;19.97;71.53;100586.97;;;;-54
2021/09/27 09:07:52;;;;;;;10.93;3.60;;;;;;;19.97;71.63;100586.73;;;;-51
2021/09/27 09:10:52;;;;;;;6.15;3.53;;;;;;;20.00;71.60;100586.58;;;;-55
2021/09/27 09:13:53;;;;;;;6.79;3.85;;;;;;;20.00;71.70;100581.69;;;;-63
2021/09/27 09:16:52;;;;;;;8.84;3.61;;;;;;;20.02;71.66;100578.86;;;;-57
2021/09/27 09:19:52;;;;;;;5.39;3.79;;;;;;;20.03;71.66;100581.89;;;;-54
2021/09/27 09:22:52;;;;;;;5.47;3.53;;;;;;;20.04;71.66;100586.44;;;;-62
2021/09/27 09:25:52;;;;;;;5.95;3.64;;;;;;;20.05;71.67;100590.78;;;;-58
2021/09/27 09:28:52;;;;;;;5.13;3.87;;;;;;;20.07;71.76;100584.93;;;;-58
2021/09/27 09:31:52;;;;;;;6.13;3.76;;;;;;;20.07;71.93;100582.40;;;;-50
2021/09/27 09:34:52;;;;;;;6.81;3.72;;;;;;;20.08;71.75;100580.27;;;;-52
2021/09/27 09:37:55;;;;;;;6.93;3.45;;;;;;;20.10;71.96;100579.16;;;;-57
2021/09/27 09:40:52;;;;;;;5.57;3.88;;;;;;;20.11;71.83;100577.84;;;;-61
2021/09/27 09:43:52;;;;;;;7.15;3.84;;;;;;;20.12;71.88;100573.55;;;;-58
2021/09/27 09:46:52;;;;;;;14.37;4.02;;;;;;;20.13;71.86;100576.31;;;;-60
2021/09/27 09:49:52;;;;;;;7.06;3.85;;;;;;;20.14;71.88;100578.45;;;;-54
2021/09/27 09:52:52;;;;;;;4.91;3.79;;;;;;;20.14;71.79;100579.18;;;;-57
2021/09/27 09:55:52;;;;;;;5.98;3.69;;;;;;;20.15;71.82;100570.90;;;;-63
2021/09/27 09:58:52;;;;;;;7.97;3.57;;;;;;;20.16;71.89;100575.37;;;;-56
2021/09/27 10:01:52;;;;;;;6.22;3.77;;;;;;;20.17;71.78;100575.11;;;;-51
2021/09/27 10:04:53;;;;;;;5.74;3.85;;;;;;;20.17;71.79;100566.89;;;;-54
2021/09/27 10:07:52;;;;;;;4.71;3.68;;;;;;;20.18;71.73;100572.45;;;;-55
2021/09/27 10:10:52;;;;;;;5.27;3.55;;;;;;;20.19;71.72;100572.44;;;;-63
2021/09/27 10:13:55;;;;;;;4.34;3.60;;;;;;;20.19;71.69;100564.49;;;;-58
2021/09/27 10:16:52;;;;;;;4.38;3.69;;;;;;;20.21;71.71;100566.76;;;;-51
2021/09/27 10:19:52;;;;;;;5.69;3.58;;;;;;;20.21;71.57;100560.17;;;;-51
2021/09/27 10:22:52;;;;;;;4.80;3.58;;;;;;;20.20;71.72;100560.25;;;;-51
2021/09/27 10:25:52;;;;;;;4.21;3.67;;;;;;;20.19;71.76;100562.02;;;;-63
2021/09/27 10:28:52;;;;;;;5.05;3.63;;;;;;;20.19;71.58;100556.00;;;;-63
2021/09/27 10:31:52;;;;;;;5.51;3.52;;;;;;;20.20;71.54;100554.47;;;;-64
2021/09/27 10:34:52;;;;;;;6.35;3.67;;;;;;;20.21;71.55;100551.70;;;;-63
2021/09/27 10:37:52;;;;;;;5.23;3.59;;;;;;;20.22;71.54;100553.52;;;;-64
2021/09/27 10:40:52;;;;;;;5.29;3.90;;;;;;;20.23;71.52;100552.85;;;;-64
2021/09/27 10:43:52;;;;;;;7.79;4.17;;;;;;;20.24;71.70;100542.45;;;;-53
2021/09/27 10:46:52;;;;;;;4.41;3.76;;;;;;;20.23;71.57;100548.70;;;;-53
2021/09/27 10:49:52;;;;;;;4.86;3.85;;;;;;;20.23;71.53;100547.07;;;;-65
2021/09/27 10:52:52;;;;;;;6.50;3.77;;;;;;;20.21;71.44;100542.94;;;;-64
2021/09/27 10:55:52;;;;;;;6.79;4.01;;;;;;;20.21;71.28;100543.80;;;;-64
2021/09/27 10:58:52;;;;;;;5.77;4.10;;;;;;;20.21;71.27;100541.28;;;;-64
2021/09/27 11:01:52;;;;;;;4.80;3.89;;;;;;;20.20;71.25;100541.86;;;;-64
2021/09/27 11:04:52;;;;;;;4.27;3.65;;;;;;;20.20;71.29;100549.02;;;;-64
2021/09/27 11:07:53;;;;;;;6.52;3.82;;;;;;;20.19;71.17;100547.16;;;;-53
2021/09/27 11:10:52;;;;;;;6.20;3.87;;;;;;;20.19;71.24;100543.06;;;;-53
2021/09/27 11:13:52;;;;;;;5.38;3.81;;;;;;;20.18;71.19;100544.29;;;;-53
2021/09/27 11:16:52;;;;;;;4.94;3.87;;;;;;;20.18;71.18;100546.41;;;;-53
2021/09/27 11:19:52;;;;;;;5.16;3.79;;;;;;;20.17;71.16;100548.86;;;;-53
2021/09/27 11:22:54;;;;;;;4.28;3.77;;;;;;;20.17;71.16;100551.55;;;;-53
2021/09/27 11:25:52;;;;;;;5.26;3.86;;;;;;;20.17;71.08;100547.80;;;;-52
2021/09/27 11:28:52;;;;;;;4.06;3.68;;;;;;;20.17;71.05;100546.55;;;;-64
2021/09/27 11:31:52;;;;;;;6.05;3.69;;;;;;;20.16;71.05;100538.26;;;;-64
2021/09/27 11:35:54;;;;;;;5.57;3.99;;;;;;;20.16;70.98;100539.72;;;;-64
2021/09/27 11:38:53;;;;;;;5.23;3.79;;;;;;;20.16;71.00;100535.91;;;;-64
2021/09/27 11:41:52;;;;;;;5.66;3.78;;;;;;;20.16;70.97;100529.96;;;;-64
2021/09/27 11:44:52;;;;;;;5.38;3.61;;;;;;;20.16;71.02;100531.83;;;;-64
2021/09/27 11:47:56;;;;;;;4.23;3.59;;;;;;;20.16;70.93;100532.49;;;;-64
2021/09/27 11:50:53;;;;;;;5.73;3.51;;;;;;;20.16;70.92;100529.40;;;;-53
2021/09/27 11:53:53;;;;;;;5.84;3.51;;;;;;;20.15;70.91;100524.58;;;;-57
2021/09/27 11:56:53;;;;;;;4.48;3.50;;;;;;;20.15;70.89;100526.39;;;;-64
2021/09/27 11:59:52;;;;;;;4.61;3.37;;;;;;;20.15;70.97;100522.22;;;;-64
2021/09/27 12:02:52;;;;;;;6.40;3.61;;;;;;;20.16;70.99;100524.59;;;;-63
2021/09/27 12:05:52;;;;;;;5.17;3.57;;;;;;;20.18;71.10;100521.52;;;;-62
2021/09/27 12:08:52;;;;;;;4.12;3.73;;;;;;;20.19;71.09;100519.25;;;;-63
2021/09/27 12:11:52;;;;;;;4.68;3.55;;;;;;;20.20;71.08;100516.88;;;;-59
2021/09/27 12:14:52;;;;;;;3.83;3.42;;;;;;;20.20;71.14;100517.45;;;;-57
2021/09/27 12:17:52;;;;;;;4.39;3.57;;;;;;;20.20;71.14;100518.67;;;;-52
2021/09/27 12:20:52;;;;;;;4.79;3.65;;;;;;;20.20;71.16;100512.25;;;;-53
2021/09/27 12:23:52;;;;;;;5.01;3.86;;;;;;;20.19;71.09;100507.75;;;;-52
2021/09/27 12:26:54;;;;;;;5.84;3.80;;;;;;;20.19;71.09;100507.78;;;;-56
2021/09/27 12:29:52;;;;;;;5.29;3.58;;;;;;;20.19;71.01;100504.41;;;;-52
2021/09/27 12:32:52;;;;;;;4.15;3.70;;;;;;;20.18;71.05;100502.30;;;;-57
2021/09/27 12:35:53;;;;;;;3.83;3.48;;;;;;;20.18;71.03;100506.38;;;;-53
2021/09/27 12:38:52;;;;;;;4.19;3.57;;;;;;;20.18;70.97;100509.46;;;;-56
2021/09/27 12:41:53;;;;;;;4.28;3.56;;;;;;;20.19;70.97;100503.52;;;;-53
2021/09/27 12:44:52;;;;;;;5.59;3.45;;;;;;;20.18;70.92;100504.09;;;;-53
2021/09/27 12:47:52;;;;;;;4.84;3.61;;;;;;;20.18;70.90;100505.16;;;;-52
2021/09/27 12:50:52;;;;;;;4.90;3.71;;;;;;;20.17;70.91;100509.77;;;;-52
2021/09/27 12:53:53;;;;;;;5.01;3.42;;;;;;;20.16;70.90;100510.03;;;;-57
2021/09/27 12:56:52;;;;;;;3.93;3.49;;;;;;;20.16;70.93;100503.92;;;;-57
2021/09/27 12:59:52;;;;;;;3.91;3.42;;;;;;;20.16;70.88;100497.82;;;;-53
2021/09/27 13:02:52;;;;;;;4.21;3.32;;;;;;;20.16;70.89;100498.39;;;;-52
2021/09/27 13:05:52;;;;;;;4.84;3.53;;;;;;;20.15;70.85;100493.84;;;;-53
2021/09/27 13:08:54;;;;;;;3.93;3.53;;;;;;;20.15;70.87;100491.05;;;;-53
2021/09/27 13:11:53;;;;;;;3.80;3.37;;;;;;;20.15;70.84;100488.45;;;;-52
2021/09/27 13:14:52;;;;;;;4.01;3.42;;;;;;;20.15;70.91;100487.09;;;;-56
2021/09/27 13:17:52;;;;;;;4.22;3.39;;;;;;;20.15;70.87;100486.33;;;;-52
2021/09/27 13:20:54;;;;;;;5.31;3.41;;;;;;;20.15;70.79;100482.05;;;;-52
2021/09/27 13:23:52;;;;;;;3.60;3.19;;;;;;;20.14;70.81;100482.59;;;;-57
2021/09/27 13:26:52;;;;;;;3.59;3.26;;;;;;;20.15;70.84;100479.09;;;;-52
2021/09/27 13:29:52;;;;;;;3.61;3.31;;;;;;;20.15;70.82;100478.94;;;;-54
2021/09/27 13:32:52;;;;;;;4.75;3.55;;;;;;;20.14;70.80;100477.56;;;;-53
2021/09/27 13:35:52;;;;;;;3.59;3.26;;;;;;;20.14;70.82;100482.76;;;;-53
2021/09/27 13:38:55;;;;;;;4.20;3.43;;;;;;;20.14;70.82;100475.77;;;;-57
2021/09/27 13:41:54;;;;;;;3.63;3.19;;;;;;;20.14;70.82;100478.20;;;;-57
2021/09/27 13:44:54;;;;;;;3.82;3.43;;;;;;;20.14;70.80;100481.95;;;;-57
2021/09/27 13:47:52;;;;;;;3.69;3.39;;;;;;;20.13;70.80;100484.32;;;;-52
2021/09/27 13:50:52;;;;;;;3.47;3.17;;;;;;;20.14;70.77;100488.55;;;;-52
2021/09/27 13:53:52;;;;;;;3.78;3.09;;;;;;;20.13;70.77;100492.92;;;;-56
2021/09/27 13:56:52;;;;;;;3.54;3.11;;;;;;;20.13;70.79;100488.06;;;;-57
2021/09/27 13:59:52;;;;;;;4.73;3.53;;;;;;;20.13;70.76;100495.30;;;;-53
2021/09/27 14:02:52;;;;;;;4.25;3.38;;;;;;;20.13;70.77;100494.87;;;;-52
2021/09/27 14:05:52;;;;;;;3.50;3.20;;;;;;;20.13;70.77;100499.02;;;;-52
2021/09/27 14:08:52;;;;;;;4.28;3.35;;;;;;;20.13;70.77;100495.69;;;;-54
2021/09/27 14:11:52;;;;;;;3.58;3.25;;;;;;;20.12;70.81;100497.39;;;;-52
2021/09/27 14:14:52;;;;;;;3.65;3.30;;;;;;;20.12;70.77;100499.67;;;;-52
2021/09/27 14:17:52;;;;;;;3.46;3.13;;;;;;;20.12;70.72;100500.41;;;;-57
2021/09/27 14:20:52;;;;;;;3.67;3.03;;;;;;;20.11;70.78;100504.58;;;;-53
2021/09/27 14:23:52;;;;;;;3.63;3.31;;;;;;;20.11;70.72;100508.63;;;;-57
2021/09/27 14:26:54;;;;;;;3.36;3.06;;;;;;;20.11;70.75;100510.27;;;;-52
2021/09/27 14:29:52;;;;;;;3.49;3.15;;;;;;;20.11;70.72;100516.20;;;;-57
2021/09/27 14:32:52;;;;;;;3.50;3.20;;;;;;;20.11;70.75;100518.97;;;;-52
2021/09/27 14:35:52;;;;;;;3.59;3.29;;;;;;;20.11;70.73;100518.08;;;;-52
2021/09/27 14:38:52;;;;;;;3.38;2.98;;;;;;;20.11;70.79;100514.17;;;;-52
2021/09/27 14:41:52;;;;;;;3.35;3.05;;;;;;;20.11;70.79;100512.22;;;;-52
2021/09/27 14:44:52;;;;;;;3.39;3.09;;;;;;;20.11;70.79;100520.52;;;;-52
2021/09/27 14:47:52;;;;;;;3.77;3.10;;;;;;;20.10;70.71;100523.34;;;;-52
2021/09/27 14:50:53;;;;;;;3.99;3.22;;;;;;;20.10;70.81;100524.72;;;;-52
2021/09/27 14:53:52;;;;;;;3.38;3.08;;;;;;;20.10;70.74;100519.03;;;;-53
2021/09/27 14:56:52;;;;;;;3.48;3.17;;;;;;;20.11;70.73;100522.14;;;;-52
2021/09/27 14:59:52;;;;;;;3.35;3.05;;;;;;;20.10;70.73;100523.91;;;;-52
2021/09/27 15:02:52;;;;;;;3.52;3.21;;;;;;;20.10;70.78;100522.77;;;;-53
2021/09/27 15:05:52;;;;;;;3.62;3.00;;;;;;;20.10;70.73;100520.98;;;;-56
2021/09/27 15:08:52;;;;;;;3.49;2.89;;;;;;;20.09;70.76;100518.80;;;;-52
2021/09/27 15:11:52;;;;;;;3.16;2.90;;;;;;;20.09;70.73;100515.86;;;;-57
2021/09/27 15:14:52;;;;;;;3.50;3.09;;;;;;;20.09;70.73;100516.93;;;;-52
2021/09/27 15:17:52;;;;;;;3.27;2.97;;;;;;;20.08;70.71;100516.98;;;;-52
2021/09/27 15:20:52;;;;;;;3.33;2.96;;;;;;;20.08;70.75;100509.83;;;;-52
2021/09/27 15:23:52;;;;;;;3.09;2.79;;;;;;;20.08;70.75;100501.77;;;;-52
2021/09/27 15:26:53;;;;;;;4.20;3.09;;;;;;;20.09;70.74;100502.85;;;;-52
2021/09/27 15:29:52;;;;;;;3.24;2.98;;;;;;;20.08;70.73;100509.82;;;;-54
2021/09/27 15:32:52;;;;;;;3.38;3.08;;;;;;;20.08;70.72;100512.91;;;;-53
2021/09/27 15:35:52;;;;;;;3.61;2.93;;;;;;;20.08;70.68;100509.09;;;;-53
2021/09/27 15:38:52;;;;;;;3.31;3.01;;;;;;;20.09;70.74;100507.33;;;;-57
2021/09/27 15:41:52;;;;;;;3.29;2.99;;;;;;;20.08;70.68;100507.14;;;;-52
2021/09/27 15:44:53;;;;;;;4.40;2.87;;;;;;;20.08;70.75;100508.28;;;;-52
2021/09/27 15:47:52;;;;;;;5.53;2.87;;;;;;;20.08;70.96;100508.36;;;;-57
2021/09/27 15:50:52;;;;;;;6.54;2.91;;;;;;;20.10;70.81;100509.76;;;;-57
2021/09/27 15:53:52;;;;;;;3.58;2.95;;;;;;;20.13;70.99;100512.84;;;;-53
2021/09/27 15:56:53;;;;;;;4.84;3.15;;;;;;;20.14;71.11;100515.47;;;;-52
2021/09/27 15:59:52;;;;;;;3.39;2.98;;;;;;;20.15;71.18;100519.88;;;;-52
2021/09/27 16:02:53;;;;;;;5.14;2.81;;;;;;;20.17;71.28;100528.35;;;;-49
2021/09/27 16:05:53;;;;;;;5.63;2.97;;;;;;;20.18;71.26;100526.96;;;;-52
2021/09/27 16:08:52;;;;;;;3.81;2.81;;;;;;;20.18;71.26;100531.44;;;;-57
2021/09/27 16:11:52;;;;;;;3.36;2.90;;;;;;;20.18;71.26;100526.72;;;;-58
2021/09/27 16:14:52;;;;;;;5.73;2.95;;;;;;;20.18;71.34;100529.23;;;;-51
2021/09/27 16:17:52;;;;;;;4.82;3.00;;;;;;;20.19;71.25;100531.05;;;;-52
2021/09/27 16:20:52;;;;;;;4.33;3.11;;;;;;;20.21;71.24;100536.48;;;;-55
2021/09/27 16:23:52;;;;;;;5.15;3.17;;;;;;;20.21;71.30;100539.52;;;;-54
2021/09/27 16:26:52;;;;;;;6.45;3.07;;;;;;;20.22;71.29;100544.31;;;;-50
2021/09/27 16:29:52;;;;;;;4.26;3.01;;;;;;;20.23;71.37;100543.25;;;;-52
2021/09/27 16:32:54;;;;;;;4.07;2.95;;;;;;;20.24;71.42;100546.13;;;;-54
2021/09/27 16:35:52;;;;;;;3.69;3.03;;;;;;;20.25;71.35;100546.92;;;;-64
2021/09/27 16:38:52;;;;;;;3.73;2.85;;;;;;;20.25;71.42;100548.22;;;;-65
2021/09/27 16:41:52;;;;;;;4.52;3.14;;;;;;;20.26;71.42;100546.86;;;;-63
2021/09/27 16:44:52;;;;;;;3.91;3.03;;;;;;;20.26;71.48;100549.13;;;;-61
2021/09/27 16:47:52;;;;;;;5.71;3.04;;;;;;;20.28;71.51;100548.74;;;;-51
2021/09/27 16:50:52;;;;;;;4.09;3.08;;;;;;;20.27;71.25;100549.31;;;;-61
2021/09/27 16:53:53;;;;;;;4.82;2.89;;;;;;;20.27;71.40;100551.16;;;;-61